Motte Rimrock Reserve, California Weather observations

Data are for 10 minute period ending at time listed.
 Day   Time   Solar   Ave.   Ave.  Ave.  Vector  Max.   Baro.   Total    
  of    of     Rad.   Air    Rel.  Wind   Wind   Wind  Press.  Precip.   
Year   Day            Temp.  Hum.  Speed  Dir.   Gust                    
2017   (PST)  Kw/m2    F      %     mph   deg.    mph    mb.     in.     
-------------------------------------------------------------------------
 324    7:40   0.11   59.9    18    0.0     0     0.0   948.9    0.00 
 324    7:50   0.19   60.8    17    0.0   304     0.1   949.0    0.00 
 324    8:00   0.12   60.5    17    0.0   255     1.4   949.2    0.00 
 324    8:10   0.27   62.2    15    0.0     0     0.0   949.2    0.00 
 324    8:20   0.29   62.8    17    0.3   353     1.6   949.6    0.00 
 324    8:30   0.20   60.9    19    2.3    29     3.7   949.8    0.00 
 324    8:40   0.25   61.9    18    2.4    27     3.4   949.9    0.00 
 324    8:50   0.36   65.4    14    2.0   349     4.5   950.0    0.00 
 324    9:00   0.38   67.2    15    2.6    36     5.0   950.1    0.00 
 324    9:10   0.37   65.0    17    3.7    56     5.3   950.4    0.00 
 324    9:20   0.38   64.9    18    3.8   346     6.4   950.6    0.00 
 324    9:30   0.40   66.5    16    3.7   318     7.2   950.5    0.00 
 324    9:40   0.37   67.6    15    2.3   292     4.5   950.5    0.00 
 324    9:50   0.44   68.3    15    0.6   107     3.4   950.3    0.00 
 324   10:00   0.46   69.1    15    0.3   109     2.4   950.4    0.00 
 324   10:10   0.48   70.0    14    0.6    54     3.9   950.4    0.00 
 324   10:20   0.49   70.4    14    0.4   148     4.5   950.7    0.00 
 324   10:30   0.51   71.5    13    2.2     6     4.5   950.8    0.00 
 324   10:40   0.44   70.7    13    1.6   355     5.0   950.6    0.00 
 324   10:50   0.45   72.3    12    2.2    67     5.8   950.5    0.00 
 324   11:00   0.45   71.2    13    4.9   101     8.3   950.1    0.00 
 324   11:10   0.41   71.2    13    4.2   114     6.9   950.0    0.00 
 324   11:20   0.48   70.9    13    4.1   109     6.1   949.8    0.00 
 324   11:30   0.53   71.2    12    5.4   109     9.3   949.4    0.00 
 324   11:40   0.47   71.6    12    2.6   117     5.5   949.3    0.00 
 324   11:50   0.56   74.6    11    1.1   164     5.1   949.2    0.00 
 324   12:00   0.52   73.5    11    3.9   177     8.0   949.0    0.00 
 324   12:10   0.53   73.6    11    2.4   229     6.1   948.9    0.00 
 324   12:20   0.50   73.8    11    2.6   281     5.1   948.9    0.00 
 324   12:30   0.41   74.0    11    3.8   284     7.7   948.9    0.00 
 324   12:40   0.50   74.2    11    5.5   273     9.3   948.9    0.00 
 324   12:50   0.50   74.1    11   10.2   295    14.5   948.8    0.00 
 324   13:00   0.56   74.1    12   10.9   298    14.8   948.6    0.00 
 324   13:10   0.56   74.5    11   10.1   298    13.4   948.5    0.00 
 324   13:20   0.44   74.0    11   10.1   303    14.1   948.3    0.00 
 324   13:30   0.39   73.6    12    8.9   307    11.9   948.3    0.00 
 324   13:40   0.45   73.8    12    9.9   312    12.9   948.4    0.00 
 324   13:50   0.46   74.0    12    8.1   318    11.9   948.4    0.00 
 324   14:00   0.41   74.4    12    8.2   293    11.5   948.3    0.00 
 324   14:10   0.31   73.7    12    8.6   297    11.5   948.2    0.00 
 324   14:20   0.24   72.8    13    8.8   313    12.0   948.3    0.00 
 324   14:30   0.28   73.0    14    9.9   320    13.2   948.4    0.00 
 324   14:40   0.32   73.0    14   10.4   317    13.7   948.5    0.00 
 324   14:50   0.26   72.5    14   10.2   320    13.3   948.6    0.00 
 324   15:00   0.20   71.9    14    9.1   324    12.7   948.6    0.00 
 324   15:10   0.25   71.7    14    9.8   324    13.0   948.6    0.00 
 324   15:20   0.25   71.7    14    8.9   323    12.3   948.6    0.00 
 324   15:30   0.24   72.1    14    6.8   318    10.2   948.6    0.00 
 324   15:40   0.17   71.5    14    5.9   325     8.0   948.6    0.00 
 324   15:50   0.14   71.2    15    6.5   334     9.1   948.6    0.00 
 324   16:00   0.10   70.7    16    7.0   321     8.4   948.7    0.00 
 324   16:10   0.08   70.0    16    7.3   314     9.5   948.8    0.00 
 324   16:20   0.06   69.6    16    7.0   316     8.9   948.7    0.00 
 324   16:30   0.04   68.6    17    6.2   326     8.4   948.8    0.00 
 324   16:40   0.02   67.4    18    7.6   317     9.3   948.8    0.00 
 324   16:50   0.01   66.6    20    9.0   314    11.0   948.7    0.00 
 324   17:00   0.01   66.0    21    9.8   318    11.4   948.7    0.00 
 324   17:10   0.00   65.1    22    9.3   322    10.5   948.8    0.00 
 324   17:20   0.00   64.5    22    9.4   324    10.5   948.8    0.00 
 324   17:30   0.00   64.3    23    9.3   323    10.9   948.9    0.00 
 324   17:40   0.00   64.0    23   10.2   319    11.9   949.0    0.00 
 324   17:50   0.00   63.7    24   10.1   318    11.6   949.1    0.00 
 324   18:00   0.00   63.2    24    9.5   315    11.7   949.2    0.00 
 324   18:10   0.00   63.2    24    9.0   314    11.2   949.3    0.00 
 324   18:20   0.00   62.9    24    8.5   315    10.7   949.4    0.00 
 324   18:30   0.00   62.6    25    8.7   313    10.2   949.5    0.00 
 324   18:40   0.00   62.5    25    7.9   311     9.9   949.4    0.00 
 324   18:50   0.00   62.8    26    6.5   317     7.5   949.4    0.00 
 324   19:00   0.00   62.8    26    6.3   322     7.5   949.5    0.00 
 324   19:10   0.00   63.0    28    5.8   329     6.5   949.5    0.00 
 324   19:20   0.00   63.4    27    4.6   341     5.6   949.4    0.00 
 324   19:30   0.00   65.0    23    3.5    22     5.6   949.3    0.00 
 324   19:40   0.00   65.9    22    2.8    41     4.5   949.3    0.00 
 324   19:50   0.00   65.9    23    3.0    49     3.9   949.3    0.00 
 324   20:00   0.00   65.6    23    1.9    60     4.1   949.3    0.00 
 324   20:10   0.00   64.4    24    0.4   268     2.1   949.3    0.00 
 324   20:20   0.00   64.1    24    0.8   270     2.0   949.3    0.00 
 324   20:30   0.00   64.0    24    0.0   258     0.5   949.4    0.00 
 324   20:40   0.00   63.9    24    3.6    57     6.8   949.3    0.00 
 324   20:50   0.00   61.4    27    5.6    75     7.3   949.4    0.00 
 324   21:00   0.00   60.9    28    5.9    76     7.2   949.5    0.00 
 324   21:10   0.00   61.9    24    7.5    94     8.6   949.4    0.00 
 324   21:20   0.00   62.2    24    8.3   106     9.7   949.5    0.00 
 324   21:30   0.00   61.7    23    8.6   102    10.0   949.5    0.00 
 324   21:40   0.00   61.8    21    6.8    92     7.6   949.6    0.00 
 324   21:50   0.00   61.6    22    4.5    89     6.1   949.6    0.00 
 324   22:00   0.00   60.8    23    2.2    67     4.5   949.6    0.00 
 324   22:10   0.00   62.0    23    1.6   105     4.6   949.7    0.00 
 324   22:20   0.00   60.8    23    0.9   152     1.8   949.7    0.00 
 324   22:30   0.00   61.0    24    2.0   205     4.1   949.7    0.00 
 324   22:40   0.00   61.1    22    0.1   208     0.9   949.7    0.00 
 324   22:50   0.00   62.3    21    0.9   207     2.7   949.7    0.00 
 324   23:00   0.00   63.6    18    1.6   145     5.3   949.6    0.00 
 324   23:10   0.00   62.3    20    2.9   119     6.2   949.6    0.00 
 324   23:20   0.00   62.5    20    1.3   166     2.8   949.7    0.00 
 324   23:30   0.00   63.8    17    2.1   101     3.1   949.6    0.00 
 324   23:40   0.00   64.1    17    0.5   107     1.8   949.6    0.00 
 324   23:50   0.00   63.8    17    2.3    12     5.3   949.6    0.00 
 325    0:00   0.00   63.7    16    5.4    19     6.6   949.5    0.00 
 325    0:10   0.00   63.4    16    5.7    12     6.8   949.5    0.00 
 325    0:20   0.00   62.8    18    6.2    22     7.5   949.5    0.00 
 325    0:30   0.00   62.5    18    5.5    36     6.6   949.5    0.00 
 325    0:40   0.00   62.2    18    4.8    36     5.8   949.5    0.00 
 325    0:50   0.00   62.4    17    3.9    28     5.2   949.6    0.00 
 325    1:00   0.00   62.7    16    4.5    17     6.1   949.7    0.00 
 325    1:10   0.00   62.4    16    4.5    33     6.1   949.8    0.00 
 325    1:20   0.00   62.3    16    5.0    39     6.3   949.8    0.00 
 325    1:30   0.00   62.3    15    5.6    30     7.3   949.8    0.00 
 325    1:40   0.00   62.7    14    5.2    35     7.2   949.9    0.00 
 325    1:50   0.00   62.9    14    4.8    22     6.3   950.1    0.00 
 325    2:00   0.00   63.5    13    4.8    32     6.0   950.1    0.00 
 325    2:10   0.00   63.3    14    3.9    44     5.8   950.1    0.00 
 325    2:20   0.00   63.6    14    4.1    44     5.8   950.1    0.00 
 325    2:30   0.00   63.3    14    3.5    84     5.8   950.1    0.00 
 325    2:40   0.00   62.7    14    4.6    90     6.1   950.1    0.00 
 325    2:50   0.00   62.3    14    4.2   100     5.2   950.1    0.00 
 325    3:00   0.00   62.6    14    3.6   106     5.0   950.0    0.00 
 325    3:10   0.00   62.6    14    1.7   108     3.6   950.1    0.00 
 325    3:20   0.00   62.0    14    0.7   314     2.2   950.0    0.00 
 325    3:30   0.00   62.9    14    1.0    76     2.4   949.8    0.00 
 325    3:40   0.00   62.6    14    0.4   254     2.0   949.8    0.00 
 325    3:50   0.00   62.6    14    1.3    24     4.0   949.8    0.00 
 325    4:00   0.00   63.6    14    3.0    71     5.9   949.8    0.00 
 325    4:10   0.00   63.0    14    1.5   161     2.6   949.8    0.00 
 325    4:20   0.00   62.2    14    1.2   182     2.6   949.8    0.00 
 325    4:30   0.00   62.0    14    2.8   141     4.2   949.9    0.00 
 325    4:40   0.00   61.8    14    2.6   110     4.7   949.9    0.00 
 325    4:50   0.00   62.6    14    4.2    70     5.2   949.9    0.00 
 325    5:00   0.00   63.0    13    4.0    56     5.4   950.0    0.00 
 325    5:10   0.00   63.1    13    3.2    70     4.0   950.1    0.00 
 325    5:20   0.00   64.0    13    3.6    86     5.3   950.2    0.00 
 325    5:30   0.00   64.5    13    2.8   127     5.0   950.2    0.00 
 325    5:40   0.00   64.3    13    1.5   136     4.3   950.2    0.00 
 325    5:50   0.00   64.3    13    0.2   146     0.8   950.4    0.00 
 325    6:00   0.00   64.4    14    1.7    77     4.5   950.5    0.00 
 325    6:10   0.00   64.8    13    3.9    64     4.7   950.5    0.00 
 325    6:20   0.00   63.8    14    3.2    45     5.6   950.6    0.00 
 325    6:30   0.00   63.3    14    4.8    37     6.6   950.8    0.00 
 325    6:40   0.00   63.2    14    4.9    37     6.9   950.8    0.00 
 325    6:50   0.01   63.3    14    5.2    25     6.9   951.0    0.00 
 325    7:00   0.03   64.9    14    4.9    23     7.3   951.1    0.00 
 325    7:10   0.07   65.9    13    5.9    23     7.7   951.3    0.00 
 325    7:20   0.08   66.7    13    5.6    26     7.2   951.5    0.00 
 325    7:30   0.10   67.2    13    6.3    26     8.0   951.7    0.00 

Return to Motte Rimrock Reserve graphs page.


Western Regional Climate Center,wrcc@dri.edu